sensor_id;sensor_type;location;lat;lon;timestamp;pressure;altitude;pressure_sealevel;temperature;humidity
57114;BME280;42994;51.606;9.988;2023-07-08T00:00:21;99467.59;;;15.41;100.00
57114;BME280;42994;51.606;9.988;2023-07-08T00:02:50;99462.25;;;15.21;100.00
57114;BME280;42994;51.606;9.988;2023-07-08T00:05:18;99465.47;;;15.56;100.00
57114;BME280;42994;51.606;9.988;2023-07-08T00:07:46;99465.16;;;14.93;100.00
57114;BME280;42994;51.606;9.988;2023-07-08T00:10:16;99459.75;;;15.19;100.00
57114;BME280;42994;51.606;9.988;2023-07-08T00:12:44;99458.09;;;15.05;100.00
57114;BME280;42994;51.606;9.988;2023-07-08T00:15:11;99460.97;;;15.24;100.00
57114;BME280;42994;51.606;9.988;2023-07-08T00:17:39;99456.84;;;15.28;100.00
57114;BME280;42994;51.606;9.988;2023-07-08T00:20:14;99452.53;;;14.87;100.00
57114;BME280;42994;51.606;9.988;2023-07-08T00:22:43;99462.69;;;15.11;100.00
57114;BME280;42994;51.606;9.988;2023-07-08T00:25:12;99450.03;;;14.85;100.00
57114;BME280;42994;51.606;9.988;2023-07-08T00:27:39;99453.56;;;14.86;100.00
57114;BME280;42994;51.606;9.988;2023-07-08T00:30:22;99449.19;;;14.58;100.00
57114;BME280;42994;51.606;9.988;2023-07-08T00:32:50;99453.56;;;14.99;100.00
57114;BME280;42994;51.606;9.988;2023-07-08T00:35:20;99449.41;;;14.90;100.00
57114;BME280;42994;51.606;9.988;2023-07-08T00:37:48;99452.50;;;15.00;100.00
57114;BME280;42994;51.606;9.988;2023-07-08T00:40:19;99450.22;;;15.17;100.00
57114;BME280;42994;51.606;9.988;2023-07-08T00:42:46;99449.41;;;14.76;100.00
57114;BME280;42994;51.606;9.988;2023-07-08T00:45:20;99452.50;;;14.53;100.00
57114;BME280;42994;51.606;9.988;2023-07-08T00:47:55;99450.44;;;14.69;100.00
57114;BME280;42994;51.606;9.988;2023-07-08T00:50:22;99456.63;;;14.49;100.00
57114;BME280;42994;51.606;9.988;2023-07-08T00:52:49;99451.09;;;14.64;100.00
57114;BME280;42994;51.606;9.988;2023-07-08T00:55:16;99453.97;;;15.03;100.00
57114;BME280;42994;51.606;9.988;2023-07-08T00:57:44;99458.72;;;15.07;100.00
57114;BME280;42994;51.606;9.988;2023-07-08T01:00:15;99443.34;;;15.14;100.00
57114;BME280;42994;51.606;9.988;2023-07-08T01:02:45;99447.13;;;14.60;100.00
57114;BME280;42994;51.606;9.988;2023-07-08T01:05:15;99450.66;;;14.74;100.00
57114;BME280;42994;51.606;9.988;2023-07-08T01:07:46;99444.63;;;14.65;100.00
57114;BME280;42994;51.606;9.988;2023-07-08T01:10:20;99444.84;;;14.90;100.00
57114;BME280;42994;51.606;9.988;2023-07-08T01:12:52;99449.59;;;15.02;100.00
57114;BME280;42994;51.606;9.988;2023-07-08T01:15:23;99438.19;;;14.79;100.00
57114;BME280;42994;51.606;9.988;2023-07-08T01:17:52;99440.69;;;14.94;100.00
57114;BME280;42994;51.606;9.988;2023-07-08T01:20:21;99437.38;;;14.59;100.00
57114;BME280;42994;51.606;9.988;2023-07-08T01:22:50;99435.72;;;14.58;100.00
57114;BME280;42994;51.606;9.988;2023-07-08T01:25:17;99432.81;;;14.59;100.00
57114;BME280;42994;51.606;9.988;2023-07-08T01:27:45;99434.69;;;14.79;100.00
57114;BME280;42994;51.606;9.988;2023-07-08T01:30:14;99425.69;;;14.12;100.00
57114;BME280;42994;51.606;9.988;2023-07-08T01:32:51;99423.84;;;14.19;100.00
57114;BME280;42994;51.606;9.988;2023-07-08T01:35:21;99422.44;;;14.63;100.00
57114;BME280;42994;51.606;9.988;2023-07-08T01:37:52;99421.56;;;14.49;100.00
57114;BME280;42994;51.606;9.988;2023-07-08T01:40:26;99419.47;;;14.11;100.00
57114;BME280;42994;51.606;9.988;2023-07-08T01:42:54;99420.47;;;14.03;100.00
57114;BME280;42994;51.606;9.988;2023-07-08T01:45:23;99417.34;;;14.00;100.00
57114;BME280;42994;51.606;9.988;2023-07-08T01:47:53;99416.56;;;14.19;100.00
57114;BME280;42994;51.606;9.988;2023-07-08T01:50:23;99419.28;;;14.39;100.00
57114;BME280;42994;51.606;9.988;2023-07-08T01:52:53;99411.84;;;14.55;100.00
57114;BME280;42994;51.606;9.988;2023-07-08T01:55:23;99413.31;;;14.64;100.00
57114;BME280;42994;51.606;9.988;2023-07-08T01:57:51;99408.94;;;14.63;100.00
57114;BME280;42994;51.606;9.988;2023-07-08T02:00:18;99408.91;;;14.56;100.00
57114;BME280;42994;51.606;9.988;2023-07-08T02:02:45;99401.66;;;14.50;100.00
57114;BME280;42994;51.606;9.988;2023-07-08T02:05:11;99403.56;;;14.63;100.00
57114;BME280;42994;51.606;9.988;2023-07-08T02:07:39;99397.72;;;14.39;100.00
57114;BME280;42994;51.606;9.988;2023-07-08T02:10:08;99396.66;;;14.34;100.00
57114;BME280;42994;51.606;9.988;2023-07-08T02:12:35;99396.22;;;14.03;100.00
57114;BME280;42994;51.606;9.988;2023-07-08T02:15:02;99397.28;;;14.09;100.00
57114;BME280;42994;51.606;9.988;2023-07-08T02:17:29;99389.34;;;13.88;100.00
57114;BME280;42994;51.606;9.988;2023-07-08T02:19:56;99386.03;;;13.92;100.00
57114;BME280;42994;51.606;9.988;2023-07-08T02:22:23;99393.97;;;14.20;100.00
57114;BME280;42994;51.606;9.988;2023-07-08T02:24:49;99393.56;;;14.17;100.00
57114;BME280;42994;51.606;9.988;2023-07-08T02:27:17;99395.16;;;13.84;100.00
57114;BME280;42994;51.606;9.988;2023-07-08T02:29:44;99392.81;;;13.68;100.00
57114;BME280;42994;51.606;9.988;2023-07-08T02:32:10;99393.66;;;13.75;100.00
57114;BME280;42994;51.606;9.988;2023-07-08T02:34:39;99381.66;;;13.71;100.00
57114;BME280;42994;51.606;9.988;2023-07-08T02:37:06;99391.84;;;13.89;100.00
57114;BME280;42994;51.606;9.988;2023-07-08T02:39:33;99382.31;;;13.80;100.00
57114;BME280;42994;51.606;9.988;2023-07-08T02:42:00;99389.97;;;13.83;100.00
57114;BME280;42994;51.606;9.988;2023-07-08T02:44:28;99394.53;;;13.89;100.00
57114;BME280;42994;51.606;9.988;2023-07-08T02:46:55;99398.47;;;14.00;100.00
57114;BME280;42994;51.606;9.988;2023-07-08T02:49:22;99390.41;;;13.93;100.00
57114;BME280;42994;51.606;9.988;2023-07-08T02:51:49;99383.50;;;13.64;100.00
57114;BME280;42994;51.606;9.988;2023-07-08T02:54:15;99388.72;;;13.92;100.00
57114;BME280;42994;51.606;9.988;2023-07-08T02:56:42;99389.56;;;13.99;100.00
57114;BME280;42994;51.606;9.988;2023-07-08T02:59:09;99381.06;;;13.89;100.00
57114;BME280;42994;51.606;9.988;2023-07-08T03:01:37;99382.91;;;13.82;100.00
57114;BME280;42994;51.606;9.988;2023-07-08T03:04:07;99383.91;;;13.74;100.00
57114;BME280;42994;51.606;9.988;2023-07-08T03:06:34;99387.47;;;13.75;100.00
57114;BME280;42994;51.606;9.988;2023-07-08T03:09:01;99384.94;;;13.67;100.00
57114;BME280;42994;51.606;9.988;2023-07-08T03:11:27;99379.91;;;13.43;100.00
57114;BME280;42994;51.606;9.988;2023-07-08T03:13:54;99383.84;;;13.54;100.00
57114;BME280;42994;51.606;9.988;2023-07-08T03:16:21;99372.41;;;13.39;100.00
57114;BME280;42994;51.606;9.988;2023-07-08T03:18:49;99374.88;;;13.34;100.00
57114;BME280;42994;51.606;9.988;2023-07-08T03:21:17;99372.69;;;13.16;100.00
57114;BME280;42994;51.606;9.988;2023-07-08T03:23:44;99376.88;;;13.25;100.00
57114;BME280;42994;51.606;9.988;2023-07-08T03:26:14;99373.09;;;13.13;100.00
57114;BME280;42994;51.606;9.988;2023-07-08T03:28:42;99389.81;;;13.36;100.00
57114;BME280;42994;51.606;9.988;2023-07-08T03:31:10;99395.25;;;13.50;100.00
57114;BME280;42994;51.606;9.988;2023-07-08T03:33:37;99393.19;;;13.52;100.00
57114;BME280;42994;51.606;9.988;2023-07-08T03:36:11;99385.63;;;13.34;100.00
57114;BME280;42994;51.606;9.988;2023-07-08T03:38:38;99393.19;;;13.52;100.00
57114;BME280;42994;51.606;9.988;2023-07-08T03:41:04;99395.09;;;13.64;100.00
57114;BME280;42994;51.606;9.988;2023-07-08T03:43:30;99391.94;;;13.13;100.00
57114;BME280;42994;51.606;9.988;2023-07-08T03:45:57;99380.38;;;13.19;100.00
57114;BME280;42994;51.606;9.988;2023-07-08T03:48:24;99391.47;;;13.37;100.00
57114;BME280;42994;51.606;9.988;2023-07-08T03:50:51;99382.34;;;13.38;100.00
57114;BME280;42994;51.606;9.988;2023-07-08T03:53:19;99386.72;;;13.46;100.00
57114;BME280;42994;51.606;9.988;2023-07-08T03:55:46;99380.97;;;13.49;100.00
57114;BME280;42994;51.606;9.988;2023-07-08T03:58:13;99386.78;;;13.53;100.00
57114;BME280;42994;51.606;9.988;2023-07-08T04:00:39;99384.03;;;13.46;100.00
57114;BME280;42994;51.606;9.988;2023-07-08T04:03:08;99381.50;;;13.38;100.00
57114;BME280;42994;51.606;9.988;2023-07-08T04:05:36;99387.56;;;13.46;100.00
57114;BME280;42994;51.606;9.988;2023-07-08T04:08:03;99384.13;;;13.73;100.00
57114;BME280;42994;51.606;9.988;2023-07-08T04:10:31;99370.31;;;13.34;100.00
57114;BME280;42994;51.606;9.988;2023-07-08T04:12:58;99382.88;;;13.69;100.00
57114;BME280;42994;51.606;9.988;2023-07-08T04:15:24;99390.38;;;13.80;100.00
57114;BME280;42994;51.606;9.988;2023-07-08T04:17:54;99388.88;;;13.71;100.00
57114;BME280;42994;51.606;9.988;2023-07-08T04:20:22;99394.72;;;13.81;100.00
57114;BME280;42994;51.606;9.988;2023-07-08T04:22:49;99391.63;;;13.84;100.00
57114;BME280;42994;51.606;9.988;2023-07-08T04:25:17;99385.56;;;13.69;100.00
57114;BME280;42994;51.606;9.988;2023-07-08T04:27:46;99399.31;;;13.94;100.00
57114;BME280;42994;51.606;9.988;2023-07-08T04:30:20;99406.38;;;13.95;100.00
57114;BME280;42994;51.606;9.988;2023-07-08T04:32:47;99404.69;;;13.80;100.00
57114;BME280;42994;51.606;9.988;2023-07-08T04:35:14;99405.75;;;13.93;100.00
57114;BME280;42994;51.606;9.988;2023-07-08T04:37:41;99408.69;;;14.11;100.00
57114;BME280;42994;51.606;9.988;2023-07-08T04:40:16;99410.34;;;14.12;100.00
57114;BME280;42994;51.606;9.988;2023-07-08T04:42:44;99428.19;;;14.27;100.00
57114;BME280;42994;51.606;9.988;2023-07-08T04:45:15;99417.84;;;14.37;100.00
57114;BME280;42994;51.606;9.988;2023-07-08T04:47:43;99416.16;;;14.22;100.00
57114;BME280;42994;51.606;9.988;2023-07-08T04:50:12;99402.47;;;14.24;100.00
57114;BME280;42994;51.606;9.988;2023-07-08T04:52:39;99410.16;;;14.34;100.00
57114;BME280;42994;51.606;9.988;2023-07-08T04:55:06;99402.91;;;14.74;100.00
57114;BME280;42994;51.606;9.988;2023-07-08T04:57:34;99415.16;;;14.84;100.00
57114;BME280;42994;51.606;9.988;2023-07-08T05:00:02;99407.91;;;14.84;100.00
57114;BME280;42994;51.606;9.988;2023-07-08T05:02:33;99399.56;;;14.86;100.00
57114;BME280;42994;51.606;9.988;2023-07-08T05:05:00;99405.16;;;15.04;100.00
57114;BME280;42994;51.606;9.988;2023-07-08T05:07:27;99411.09;;;15.33;100.00
57114;BME280;42994;51.606;9.988;2023-07-08T05:09:54;99422.22;;;15.63;100.00
57114;BME280;42994;51.606;9.988;2023-07-08T05:12:21;99415.94;;;15.76;100.00
57114;BME280;42994;51.606;9.988;2023-07-08T05:14:48;99406.00;;;15.56;100.00
57114;BME280;42994;51.606;9.988;2023-07-08T05:17:14;99401.69;;;15.55;100.00
57114;BME280;42994;51.606;9.988;2023-07-08T05:19:43;99403.97;;;15.97;100.00
57114;BME280;42994;51.606;9.988;2023-07-08T05:22:11;99407.56;;;16.48;100.00
57114;BME280;42994;51.606;9.988;2023-07-08T05:24:37;99414.34;;;16.89;100.00
57114;BME280;42994;51.606;9.988;2023-07-08T05:27:04;99416.38;;;17.12;100.00
57114;BME280;42994;51.606;9.988;2023-07-08T05:29:31;99418.59;;;17.40;100.00
57114;BME280;42994;51.606;9.988;2023-07-08T05:31:58;99420.97;;;17.67;100.00
57114;BME280;42994;51.606;9.988;2023-07-08T05:34:24;99423.06;;;17.83;100.00
57114;BME280;42994;51.606;9.988;2023-07-08T05:36:52;99426.59;;;18.14;100.00
57114;BME280;42994;51.606;9.988;2023-07-08T05:39:19;99422.56;;;18.35;100.00
57114;BME280;42994;51.606;9.988;2023-07-08T05:41:46;99424.59;;;18.40;100.00
57114;BME280;42994;51.606;9.988;2023-07-08T05:44:12;99422.38;;;18.72;100.00
57114;BME280;42994;51.606;9.988;2023-07-08T05:46:39;99423.72;;;18.39;100.00
57114;BME280;42994;51.606;9.988;2023-07-08T05:49:06;99417.16;;;18.71;100.00
57114;BME280;42994;51.606;9.988;2023-07-08T05:51:33;99420.41;;;18.91;100.00
57114;BME280;42994;51.606;9.988;2023-07-08T05:54:01;99423.69;;;18.81;100.00
57114;BME280;42994;51.606;9.988;2023-07-08T05:56:28;99423.59;;;19.12;100.00
57114;BME280;42994;51.606;9.988;2023-07-08T05:58:56;99417.28;;;19.47;100.00
57114;BME280;42994;51.606;9.988;2023-07-08T06:01:23;99416.75;;;19.73;100.00
57114;BME280;42994;51.606;9.988;2023-07-08T06:03:49;99422.47;;;20.01;100.00
57114;BME280;42994;51.606;9.988;2023-07-08T06:06:16;99427.38;;;20.04;100.00
57114;BME280;42994;51.606;9.988;2023-07-08T06:08:43;99423.44;;;20.11;100.00
57114;BME280;42994;51.606;9.988;2023-07-08T06:11:11;99420.25;;;20.31;100.00
57114;BME280;42994;51.606;9.988;2023-07-08T06:13:38;99423.03;;;20.48;100.00
57114;BME280;42994;51.606;9.988;2023-07-08T06:16:04;99425.94;;;20.76;100.00
57114;BME280;42994;51.606;9.988;2023-07-08T06:18:31;99413.72;;;21.17;100.00
57114;BME280;42994;51.606;9.988;2023-07-08T06:20:58;99423.41;;;21.08;100.00
57114;BME280;42994;51.606;9.988;2023-07-08T06:23:25;99425.81;;;21.43;100.00
57114;BME280;42994;51.606;9.988;2023-07-08T06:25:52;99420.06;;;21.62;100.00
57114;BME280;42994;51.606;9.988;2023-07-08T06:28:21;99421.19;;;21.88;100.00
57114;BME280;42994;51.606;9.988;2023-07-08T06:30:48;99428.13;;;21.52;100.00
57114;BME280;42994;51.606;9.988;2023-07-08T06:33:15;99428.72;;;20.01;100.00
57114;BME280;42994;51.606;9.988;2023-07-08T06:35:42;99427.34;;;19.87;100.00
57114;BME280;42994;51.606;9.988;2023-07-08T06:38:10;99423.56;;;19.88;100.00
57114;BME280;42994;51.606;9.988;2023-07-08T06:40:37;99422.97;;;19.86;100.00
57114;BME280;42994;51.606;9.988;2023-07-08T06:43:03;99420.19;;;21.11;100.00
57114;BME280;42994;51.606;9.988;2023-07-08T06:45:44;99415.22;;;21.91;100.00
57114;BME280;42994;51.606;9.988;2023-07-08T06:48:11;99420.47;;;22.52;100.00
57114;BME280;42994;51.606;9.988;2023-07-08T06:50:38;99424.59;;;22.55;100.00
57114;BME280;42994;51.606;9.988;2023-07-08T06:53:04;99420.81;;;21.79;100.00
57114;BME280;42994;51.606;9.988;2023-07-08T06:55:32;99418.34;;;22.59;100.00
57114;BME280;42994;51.606;9.988;2023-07-08T06:57:59;99411.22;;;22.96;100.00
57114;BME280;42994;51.606;9.988;2023-07-08T07:00:25;99414.69;;;22.43;100.00
57114;BME280;42994;51.606;9.988;2023-07-08T07:02:53;99413.38;;;22.24;100.00
57114;BME280;42994;51.606;9.988;2023-07-08T07:05:20;99415.69;;;23.07;100.00
57114;BME280;42994;51.606;9.988;2023-07-08T07:07:47;99408.31;;;23.60;100.00
57114;BME280;42994;51.606;9.988;2023-07-08T07:10:14;99415.03;;;24.06;100.00
57114;BME280;42994;51.606;9.988;2023-07-08T07:12:41;99414.50;;;24.09;100.00
57114;BME280;42994;51.606;9.988;2023-07-08T07:15:08;99414.31;;;24.67;100.00
57114;BME280;42994;51.606;9.988;2023-07-08T07:17:35;99413.44;;;24.51;100.00
57114;BME280;42994;51.606;9.988;2023-07-08T07:20:04;99399.22;;;24.69;100.00
57114;BME280;42994;51.606;9.988;2023-07-08T07:22:30;99394.50;;;25.11;100.00
57114;BME280;42994;51.606;9.988;2023-07-08T07:24:58;99401.63;;;25.07;98.22
57114;BME280;42994;51.606;9.988;2023-07-08T07:27:24;99399.75;;;24.71;94.96
57114;BME280;42994;51.606;9.988;2023-07-08T07:29:51;99402.06;;;25.50;97.99
57114;BME280;42994;51.606;9.988;2023-07-08T07:32:19;99405.13;;;25.38;95.89
57114;BME280;42994;51.606;9.988;2023-07-08T07:34:49;99411.25;;;24.89;100.00
57114;BME280;42994;51.606;9.988;2023-07-08T07:37:20;99401.06;;;25.90;91.61
57114;BME280;42994;51.606;9.988;2023-07-08T07:39:47;99400.88;;;24.60;85.50
57114;BME280;42994;51.606;9.988;2023-07-08T07:42:15;99417.56;;;24.38;100.00
57114;BME280;42994;51.606;9.988;2023-07-08T07:44:42;99416.69;;;24.02;100.00
57114;BME280;42994;51.606;9.988;2023-07-08T07:47:09;99402.75;;;25.81;93.41
57114;BME280;42994;51.606;9.988;2023-07-08T07:49:37;99402.44;;;25.93;87.68
57114;BME280;42994;51.606;9.988;2023-07-08T07:52:04;99389.75;;;26.42;79.70
57114;BME280;42994;51.606;9.988;2023-07-08T07:54:33;99404.66;;;25.10;88.09
57114;BME280;42994;51.606;9.988;2023-07-08T07:57:00;99412.06;;;25.85;92.59
57114;BME280;42994;51.606;9.988;2023-07-08T07:59:27;99391.13;;;26.05;79.29
57114;BME280;42994;51.606;9.988;2023-07-08T08:01:53;99388.56;;;25.64;73.00
57114;BME280;42994;51.606;9.988;2023-07-08T08:04:20;99398.00;;;26.42;83.44
57114;BME280;42994;51.606;9.988;2023-07-08T08:06:47;99395.84;;;26.68;76.42
57114;BME280;42994;51.606;9.988;2023-07-08T08:09:13;99395.63;;;26.59;76.27
57114;BME280;42994;51.606;9.988;2023-07-08T08:11:41;99411.09;;;27.14;80.64
57114;BME280;42994;51.606;9.988;2023-07-08T08:14:08;99399.03;;;27.58;73.20
57114;BME280;42994;51.606;9.988;2023-07-08T08:16:35;99404.22;;;26.13;72.64
57114;BME280;42994;51.606;9.988;2023-07-08T08:19:01;99409.97;;;26.61;79.13
57114;BME280;42994;51.606;9.988;2023-07-08T08:21:28;99403.81;;;25.85;75.85
57114;BME280;42994;51.606;9.988;2023-07-08T08:23:55;99409.97;;;26.61;84.25
57114;BME280;42994;51.606;9.988;2023-07-08T08:26:24;99403.66;;;27.63;78.72
57114;BME280;42994;51.606;9.988;2023-07-08T08:28:52;99396.53;;;26.84;74.15
57114;BME280;42994;51.606;9.988;2023-07-08T08:31:18;99399.78;;;26.91;80.92
57114;BME280;42994;51.606;9.988;2023-07-08T08:33:45;99399.94;;;27.72;77.29
57114;BME280;42994;51.606;9.988;2023-07-08T08:36:12;99393.28;;;28.16;69.51
57114;BME280;42994;51.606;9.988;2023-07-08T08:38:39;99396.91;;;27.01;66.62
57114;BME280;42994;51.606;9.988;2023-07-08T08:41:12;99396.69;;;27.27;71.27
57114;BME280;42994;51.606;9.988;2023-07-08T08:43:41;99404.00;;;28.37;66.98
57114;BME280;42994;51.606;9.988;2023-07-08T08:46:23;99394.28;;;28.91;63.06
57114;BME280;42994;51.606;9.988;2023-07-08T08:49:05;99401.66;;;27.68;61.83
57114;BME280;42994;51.606;9.988;2023-07-08T08:51:35;99403.94;;;27.42;65.16
57114;BME280;42994;51.606;9.988;2023-07-08T08:54:01;99395.34;;;28.76;67.32
57114;BME280;42994;51.606;9.988;2023-07-08T08:56:31;99395.81;;;28.98;63.24
57114;BME280;42994;51.606;9.988;2023-07-08T08:59:03;99392.94;;;28.89;63.84
57114;BME280;42994;51.606;9.988;2023-07-08T09:01:35;99386.47;;;28.47;57.07
57114;BME280;42994;51.606;9.988;2023-07-08T09:04:05;99405.66;;;27.57;70.18
57114;BME280;42994;51.606;9.988;2023-07-08T09:06:34;99384.72;;;28.18;63.22
57114;BME280;42994;51.606;9.988;2023-07-08T09:09:03;99401.66;;;27.68;70.89
57114;BME280;42994;51.606;9.988;2023-07-08T09:11:40;99398.50;;;27.99;67.16
57114;BME280;42994;51.606;9.988;2023-07-08T09:14:15;99417.75;;;27.08;74.70
57114;BME280;42994;51.606;9.988;2023-07-08T09:16:50;99405.75;;;27.28;71.36
57114;BME280;42994;51.606;9.988;2023-07-08T09:19:23;99410.56;;;28.03;71.06
57114;BME280;42994;51.606;9.988;2023-07-08T09:21:54;99405.84;;;28.42;68.48
57114;BME280;42994;51.606;9.988;2023-07-08T09:24:28;99402.66;;;28.53;66.10
57114;BME280;42994;51.606;9.988;2023-07-08T09:26:57;99416.34;;;27.83;70.11
57114;BME280;42994;51.606;9.988;2023-07-08T09:29:26;99420.16;;;27.44;75.76
57114;BME280;42994;51.606;9.988;2023-07-08T09:31:55;99413.69;;;28.34;68.08
57114;BME280;42994;51.606;9.988;2023-07-08T09:34:23;99431.75;;;26.47;83.79
57114;BME280;42994;51.606;9.988;2023-07-08T09:36:51;99428.44;;;26.11;91.28
57114;BME280;42994;51.606;9.988;2023-07-08T09:39:20;99427.44;;;26.36;93.41
57114;BME280;42994;51.606;9.988;2023-07-08T09:41:48;99423.56;;;25.98;97.30
57114;BME280;42994;51.606;9.988;2023-07-08T09:44:18;99428.41;;;26.16;94.82
57114;BME280;42994;51.606;9.988;2023-07-08T09:46:48;99418.78;;;26.53;87.95
57114;BME280;42994;51.606;9.988;2023-07-08T09:49:20;99418.38;;;27.96;80.33
57114;BME280;42994;51.606;9.988;2023-07-08T09:51:48;99405.13;;;28.55;68.03
57114;BME280;42994;51.606;9.988;2023-07-08T09:54:16;99414.38;;;27.64;67.31
57114;BME280;42994;51.606;9.988;2023-07-08T09:56:43;99424.03;;;27.86;75.58
57114;BME280;42994;51.606;9.988;2023-07-08T09:59:12;99418.91;;;28.36;71.04
57114;BME280;42994;51.606;9.988;2023-07-08T10:01:42;99411.53;;;28.12;70.26
57114;BME280;42994;51.606;9.988;2023-07-08T10:04:09;99402.72;;;28.29;63.22
57114;BME280;42994;51.606;9.988;2023-07-08T10:06:37;99407.00;;;28.03;65.74
57114;BME280;42994;51.606;9.988;2023-07-08T10:09:05;99419.78;;;28.50;70.97
57114;BME280;42994;51.606;9.988;2023-07-08T10:11:41;99409.72;;;29.06;68.79
57114;BME280;42994;51.606;9.988;2023-07-08T10:14:12;99407.88;;;29.02;67.15
57114;BME280;42994;51.606;9.988;2023-07-08T10:16:45;99400.41;;;29.02;63.54
57114;BME280;42994;51.606;9.988;2023-07-08T10:19:13;99386.69;;;28.83;56.36
57114;BME280;42994;51.606;9.988;2023-07-08T10:21:52;99389.59;;;29.75;58.62
57114;BME280;42994;51.606;9.988;2023-07-08T10:24:42;99405.13;;;27.98;65.74
57114;BME280;42994;51.606;9.988;2023-07-08T10:27:19;99396.38;;;27.53;63.30
57114;BME280;42994;51.606;9.988;2023-07-08T10:29:53;99382.88;;;27.51;60.34
57114;BME280;42994;51.606;9.988;2023-07-08T10:32:28;99400.53;;;27.93;62.64
57114;BME280;42994;51.606;9.988;2023-07-08T10:35:01;99395.81;;;28.13;63.84
57114;BME280;42994;51.606;9.988;2023-07-08T10:37:39;99389.16;;;28.99;63.49
57114;BME280;42994;51.606;9.988;2023-07-08T10:40:21;99323.97;;;29.30;45.06
57114;BME280;42994;51.606;9.988;2023-07-08T10:43:03;99323.88;;;29.86;41.39
57114;BME280;42994;51.606;9.988;2023-07-08T10:45:34;99374.66;;;29.76;51.75
57114;BME280;42994;51.606;9.988;2023-07-08T10:48:21;99379.97;;;29.59;56.04
57114;BME280;42994;51.606;9.988;2023-07-08T10:51:02;99386.66;;;29.44;57.70
57114;BME280;42994;51.606;9.988;2023-07-08T10:53:54;99378.06;;;29.59;56.66
57114;BME280;42994;51.606;9.988;2023-07-08T10:56:30;99379.78;;;29.83;54.09
57114;BME280;42994;51.606;9.988;2023-07-08T10:59:16;99378.13;;;29.82;54.54
57114;BME280;42994;51.606;9.988;2023-07-08T11:02:08;99368.72;;;29.69;51.78
57114;BME280;42994;51.606;9.988;2023-07-08T11:04:48;99356.34;;;29.66;47.03
57114;BME280;42994;51.606;9.988;2023-07-08T11:07:32;99367.97;;;29.91;49.06
57114;BME280;42994;51.606;9.988;2023-07-08T11:10:05;99350.84;;;29.39;46.75
57114;BME280;42994;51.606;9.988;2023-07-08T11:12:35;99356.91;;;29.91;46.89
57114;BME280;42994;51.606;9.988;2023-07-08T11:15:13;99364.75;;;29.61;50.27
57114;BME280;42994;51.606;9.988;2023-07-08T11:17:48;99367.91;;;29.55;49.70
57114;BME280;42994;51.606;9.988;2023-07-08T11:20:19;99346.63;;;30.05;46.62
57114;BME280;42994;51.606;9.988;2023-07-08T11:22:50;99344.81;;;30.23;46.17
57114;BME280;42994;51.606;9.988;2023-07-08T11:25:21;99352.31;;;30.45;47.84
57114;BME280;42994;51.606;9.988;2023-07-08T11:27:54;99328.66;;;30.17;43.39
57114;BME280;42994;51.606;9.988;2023-07-08T11:30:23;99338.84;;;29.85;45.65
57114;BME280;42994;51.606;9.988;2023-07-08T11:32:58;99337.44;;;30.64;46.41
57114;BME280;42994;51.606;9.988;2023-07-08T11:35:35;99315.91;;;30.29;41.75
57114;BME280;42994;51.606;9.988;2023-07-08T11:38:03;99306.09;;;30.46;39.08
57114;BME280;42994;51.606;9.988;2023-07-08T11:40:39;99309.16;;;29.77;39.73
57114;BME280;42994;51.606;9.988;2023-07-08T11:43:16;99313.81;;;30.58;39.41
57114;BME280;42994;51.606;9.988;2023-07-08T11:45:43;99314.06;;;30.02;39.94
57114;BME280;42994;51.606;9.988;2023-07-08T11:48:13;99308.47;;;30.61;39.61
57114;BME280;42994;51.606;9.988;2023-07-08T11:50:43;99276.47;;;30.78;35.47
57114;BME280;42994;51.606;9.988;2023-07-08T11:53:13;99288.69;;;31.26;36.59
57114;BME280;42994;51.606;9.988;2023-07-08T11:56:01;99283.91;;;31.00;36.59
57114;BME280;42994;51.606;9.988;2023-07-08T11:58:31;99280.41;;;30.00;35.05
57114;BME280;42994;51.606;9.988;2023-07-08T12:00:59;99282.88;;;30.02;35.60
57114;BME280;42994;51.606;9.988;2023-07-08T12:03:34;99277.88;;;30.66;35.07
57114;BME280;42994;51.606;9.988;2023-07-08T12:06:01;99288.63;;;31.08;37.02
57114;BME280;42994;51.606;9.988;2023-07-08T12:08:33;99282.69;;;30.83;36.28
57114;BME280;42994;51.606;9.988;2023-07-08T12:11:03;99295.41;;;31.42;37.67
57114;BME280;42994;51.606;9.988;2023-07-08T12:13:30;99287.84;;;31.08;37.06
57114;BME280;42994;51.606;9.988;2023-07-08T12:15:57;99283.59;;;31.01;36.80
57114;BME280;42994;51.606;9.988;2023-07-08T12:18:36;99283.88;;;30.91;37.67
57114;BME280;42994;51.606;9.988;2023-07-08T12:21:03;99277.63;;;31.26;36.70
57114;BME280;42994;51.606;9.988;2023-07-08T12:23:30;99277.63;;;31.34;36.26
57114;BME280;42994;51.606;9.988;2023-07-08T12:25:57;99273.53;;;31.14;35.94
57114;BME280;42994;51.606;9.988;2023-07-08T12:28:26;99280.53;;;31.20;36.46
57114;BME280;42994;51.606;9.988;2023-07-08T12:30:52;99272.16;;;30.32;35.59
57114;BME280;42994;51.606;9.988;2023-07-08T12:33:25;99278.59;;;30.18;36.86
57114;BME280;42994;51.606;9.988;2023-07-08T12:35:52;99283.75;;;30.11;38.67
57114;BME280;42994;51.606;9.988;2023-07-08T12:38:25;99274.41;;;30.52;37.82
57114;BME280;42994;51.606;9.988;2023-07-08T12:40:53;99281.56;;;31.42;37.82
57114;BME280;42994;51.606;9.988;2023-07-08T12:43:20;99265.66;;;30.59;36.50
57114;BME280;42994;51.606;9.988;2023-07-08T12:45:48;99292.53;;;30.67;38.55
57114;BME280;42994;51.606;9.988;2023-07-08T12:48:15;99277.88;;;30.98;38.41
57114;BME280;42994;51.606;9.988;2023-07-08T12:50:42;99260.16;;;31.08;35.61
57114;BME280;42994;51.606;9.988;2023-07-08T12:53:10;99251.84;;;30.67;34.90
57114;BME280;42994;51.606;9.988;2023-07-08T12:55:39;99263.31;;;29.98;36.01
57114;BME280;42994;51.606;9.988;2023-07-08T12:58:09;99248.13;;;30.09;35.91
57114;BME280;42994;51.606;9.988;2023-07-08T13:00:40;99252.19;;;30.35;35.76
57114;BME280;42994;51.606;9.988;2023-07-08T13:03:19;99263.34;;;29.76;37.51
57114;BME280;42994;51.606;9.988;2023-07-08T13:05:48;99254.66;;;30.76;36.46